Flight Track Log - Related Links

Times and Time Zones

All times are in EDT time to prevent confusion due to time zone crossing. See the UAL4604 flight status page for this flight to view local times or setup timezone preferences in your user account.

Time Position Orientation Groundspeed Altitude Reporting Facility
EDT Latitude Longitude Course Direction KTS MPH feet Rate Location/Type
Fri 05:48:03 PM 37.5500 -77.3667 253° West 195 224 2,300  Level Potomac TRACON
Fri 05:48:53 PM 37.5358 -77.4200 251° West 202 232 4,400 2,182 Climbing Washington Center
Fri 05:49:53 PM 37.5117 -77.4978 249° West 221 254 6,300 2,311 Climbing Washington Center
Fri 05:50:00 PM 37.4096 -77.6721 257° West  Level FlightAware Approximate
Fri 05:50:55 PM 37.4853 -77.5836 249° West 250 288 9,100  Level Washington Center
Fri 05:51:00 PM 37.3874 -77.7943 257° West  Level FlightAware Approximate
Fri 05:51:55 PM 37.4567 -77.6692 247° West 264 304 10,600  Level Washington Center
Fri 05:52:00 PM 37.3614 -77.9153 254° West  Level FlightAware Approximate
Fri 05:52:53 PM 37.4233 -77.7756 248° West 297 342 12,100  Level Washington Center
Fri 05:53:00 PM 37.3448 -78.0376 253° West  Level FlightAware Approximate
Fri 05:53:53 PM 37.3903 -77.8789 248° West 318 366 13,700  Level Washington Center
Fri 05:54:54 PM 37.3567 -77.9878 249° West 330 380 15,600 1,623 Climbing Washington Center
Fri 05:55:55 PM 37.3317 -78.0992 254° West 335 386 17,000 1,261 Climbing Washington Center
Fri 05:56:53 PM 37.3128 -78.2006 257° West 335 386 18,100 966 Climbing Washington Center
Fri 05:57:53 PM 37.2872 -78.3144 254° West 340 391 18,900 942 Climbing Washington Center
Fri 05:58:54 PM 37.2572 -78.4439 254° West 340 391 20,000 1,041 Climbing Washington Center
Fri 05:59:54 PM 37.2311 -78.5656 255° West 351 404 21,000 1,109 Climbing Washington Center
Fri 06:00:53 PM 37.2011 -78.6869 253° West 356 410 22,200 1,150 Climbing Washington Center
Fri 06:01:54 PM 37.1728 -78.8083 254° West 356 410 23,300 1,091 Climbing Washington Center
Fri 06:02:54 PM 37.1489 -78.9194 255° West 361 415 24,400 1,140 Climbing Washington Center
Fri 06:03:55 PM 37.1203 -79.0406 254° West 361 415 25,600 1,140 Climbing Washington Center
Fri 06:04:55 PM 37.0939 -79.1617 255° West 361 415 26,700 1,169 Climbing Washington Center
Fri 06:05:53 PM 37.0653 -79.2803 253° West 361 415 27,900 1,169 Climbing Washington Center
Fri 06:06:53 PM 37.0367 -79.3958 253° West 355 409 29,000 1,091 Climbing Washington Center
Fri 06:07:54 PM 37.0075 -79.5192 254° West 350 403 30,100 984 Climbing Washington Center
Fri 06:08:55 PM 36.9500 -79.6178 234° Southwest 350 403 31,000 645 Climbing Washington Center
Fri 06:09:55 PM 36.8781 -79.7100 226° Southwest 357 411 31,400 645 Climbing Washington Center
Fri 06:10:56 PM 36.8019 -79.8019 224° Southwest 371 427 32,300 915 Climbing Washington Center
Fri 06:11:53 PM 36.7364 -79.8839 225° Southwest 376 433 33,200 966 Climbing Washington Center
Fri 06:12:54 PM 36.6664 -79.9733 226° Southwest 376 433 34,200 955 Climbing Washington Center
Fri 06:14:05 PM 36.5783 -80.0758 223° Southwest 366 421 35,300 824 Climbing Atlanta Center
Fri 06:15:05 PM 36.5081 -80.1619 225° Southwest 361 415 36,000 350 Climbing Atlanta Center
Fri 06:16:05 PM 36.4317 -80.2583 225° Southwest 361 415 36,000  Level Atlanta Center
Fri 06:17:05 PM 36.3553 -80.3472 223° Southwest 367 422 36,000  Level Atlanta Center
Fri 06:18:05 PM 36.2789 -80.4433 225° Southwest 382 440 36,000  Level Atlanta Center
Fri 06:19:05 PM 36.1961 -80.5397 223° Southwest 397 457 36,000  Level Atlanta Center
Fri 06:20:05 PM 36.1197 -80.6381 226° Southwest 402 463 36,000  Level Atlanta Center
Fri 06:21:05 PM 36.0367 -80.7367 224° Southwest 407 468 36,000  Level Atlanta Center
Fri 06:22:05 PM 35.9539 -80.8375 225° Southwest 420 483 36,000  Level Atlanta Center
Fri 06:23:05 PM 35.8689 -80.9381 224° Southwest 426 490 36,000  Level Atlanta Center
Fri 06:24:05 PM 35.7881 -81.0383 225° Southwest 421 484 36,000  Level Atlanta Center
Fri 06:25:05 PM 35.7028 -81.1414 224° Southwest 421 484 36,000  Level Atlanta Center
Fri 06:26:05 PM 35.6111 -81.2364 220° Southwest 427 491 36,000  Level Atlanta Center
Fri 06:27:05 PM 35.5322 -81.3439 228° Southwest 433 498 36,000  Level Atlanta Center
Fri 06:28:05 PM 35.4447 -81.4461 224° Southwest 438 504 36,000  Level Atlanta Center
Fri 06:29:05 PM 35.3614 -81.5481 225° Southwest 427 491 36,000  Level Atlanta Center
Fri 06:30:05 PM 35.2756 -81.6447 223° Southwest 421 484 36,000  Level Atlanta Center
Fri 06:31:05 PM 35.1919 -81.7439 224° Southwest 421 484 36,000  Level Atlanta Center
Fri 06:32:05 PM 35.1061 -81.8453 224° Southwest 421 484 36,000  Level Atlanta Center
Fri 06:33:05 PM 35.0264 -81.9461 226° Southwest 421 484 36,000  Level Atlanta Center
Fri 06:34:05 PM 34.9575 -82.0569 233° Southwest 416 479 36,000  Level Atlanta Center
Fri 06:35:05 PM 34.8922 -82.1675 234° Southwest 416 479 36,000  Level Atlanta Center
Fri 06:36:05 PM 34.8231 -82.2753 232° Southwest 410 472 36,000  Level Atlanta Center
Fri 06:37:05 PM 34.7578 -82.3853 234° Southwest 416 479 36,000  Level Atlanta Center
Fri 06:38:05 PM 34.6883 -82.4978 233° Southwest 416 479 36,000  Level Atlanta Center
Fri 06:39:05 PM 34.6269 -82.5922 232° Southwest 416 479 36,000  Level Atlanta Center
Fri 06:40:05 PM 34.5614 -82.7019 234° Southwest 411 473 36,000  Level Atlanta Center
Fri 06:41:05 PM 34.4894 -82.8214 234° Southwest 411 473 36,000  Level Atlanta Center
Fri 06:42:05 PM 34.4194 -82.9308 232° Southwest 411 473 36,000  Level Atlanta Center
Fri 06:43:05 PM 34.3517 -83.0400 233° Southwest 411 473 36,000  Level Atlanta Center
Fri 06:44:05 PM 34.2836 -83.1514 234° Southwest 417 480 36,000  Level Atlanta Center
Fri 06:45:05 PM 34.2156 -83.2625 233° Southwest 417 480 36,000  Level Atlanta Center
Fri 06:46:05 PM 34.1453 -83.3736 233° Southwest 417 480 36,000  Level Atlanta Center
Fri 06:47:05 PM 34.0769 -83.4844 233° Southwest 417 480 36,000  Level Atlanta Center
Fri 06:48:05 PM 34.0064 -83.5953 232° Southwest 417 480 36,000  Level Atlanta Center
Fri 06:49:05 PM 33.9336 -83.7058 232° Southwest 417 480 36,000  Level Atlanta Center
Fri 06:50:05 PM 33.8733 -83.8036 233° Southwest 417 480 36,000  Level Atlanta Center
Fri 06:51:05 PM 33.8047 -83.9139 233° Southwest 417 480 36,000  Level Atlanta Center
Fri 06:52:05 PM 33.7358 -84.0189 232° Southwest 417 480 36,000  Level Atlanta Center
Fri 06:53:05 PM 33.6647 -84.1286 232° Southwest 417 480 36,000  Level Atlanta Center
Fri 06:54:05 PM 33.5894 -84.2483 233° Southwest 417 480 36,000  Level Atlanta Center
Fri 06:55:05 PM 33.5183 -84.3578 232° Southwest 417 480 36,000  Level Atlanta Center
Fri 06:56:05 PM 33.4492 -84.4669 233° Southwest 417 480 36,000  Level Atlanta Center
Fri 06:57:05 PM 33.3797 -84.5761 233° Southwest 417 480 36,000  Level Atlanta Center
Fri 06:58:05 PM 33.3083 -84.6875 233° Southwest 417 480 36,000  Level Atlanta Center
Fri 06:59:05 PM 33.2367 -84.7964 232° Southwest 417 480 36,000  Level Atlanta Center
Fri 07:00:05 PM 33.1672 -84.9050 233° Southwest 417 480 36,000  Level Atlanta Center
Fri 07:01:05 PM 33.0997 -85.0008 230° Southwest 417 480 36,000  Level Atlanta Center
Fri 07:02:05 PM 33.0297 -85.1142 234° Southwest 417 480 36,000  Level Atlanta Center
Fri 07:03:05 PM 32.9517 -85.2269 231° Southwest 415 478 36,000  Level Atlanta Center
Fri 07:04:05 PM 32.8794 -85.3375 232° Southwest 421 484 36,000  Level Atlanta Center
Fri 07:05:05 PM 32.8094 -85.4475 233° Southwest 421 484 36,000  Level Atlanta Center
Fri 07:06:05 PM 32.7372 -85.5550 231° Southwest 421 484 36,000  Level Atlanta Center
Fri 07:07:05 PM 32.6647 -85.6625 231° Southwest 421 484 36,000  Level Atlanta Center
Fri 07:08:05 PM 32.5903 -85.7719 231° Southwest 421 484 36,000  Level Atlanta Center
Fri 07:09:05 PM 32.5197 -85.8789 232° Southwest 421 484 36,000  Level Atlanta Center
Fri 07:10:05 PM 32.4408 -85.9931 231° Southwest 433 498 36,000  Level Atlanta Center
Fri 07:11:05 PM 32.3681 -86.1019 232° Southwest 433 498 36,000  Level Atlanta Center
Fri 07:12:05 PM 32.2953 -86.2111 232° Southwest 433 498 36,000  Level Atlanta Center
Fri 07:13:05 PM 32.2394 -86.2956 232° Southwest 433 498 36,000  Level Atlanta Center
Fri 07:14:05 PM 32.1514 -86.4258 231° Southwest 434 499 36,000  Level Atlanta Center
Fri 07:15:05 PM 32.0783 -86.5317 231° Southwest 429 494 36,000  Level Atlanta Center
Fri 07:16:05 PM 32.0011 -86.6347 229° Southwest 423 487 36,000  Level Atlanta Center
Fri 07:17:05 PM 31.9281 -86.7281 227° Southwest 423 487 36,000  Level Atlanta Center
Fri 07:18:05 PM 31.8528 -86.8358 231° Southwest 428 493 36,000  Level Atlanta Center
Fri 07:19:05 PM 31.7772 -86.9386 229° Southwest 428 493 36,000  Level Atlanta Center
Fri 07:20:05 PM 31.6997 -87.0436 229° Southwest 428 493 36,000  Level Atlanta Center
Fri 07:21:05 PM 31.6197 -87.1578 231° Southwest 428 493 36,000  Level Atlanta Center
Fri 07:23:37 PM 31.4314 -87.4097 229° Southwest 422 486 36,000  Level Houston Center
Fri 07:24:39 PM 31.3553 -87.5122 229° Southwest 418 481 36,000  Level Houston Center
Fri 07:25:41 PM 31.2639 -87.6367 229° Southwest 420 483 36,000  Level Houston Center
Fri 07:26:43 PM 31.1900 -87.7356 229° Southwest 423 487 36,000  Level Houston Center
Fri 07:27:45 PM 31.1139 -87.8389 229° Southwest 421 484 36,000  Level Houston Center
Fri 07:28:47 PM 31.0372 -87.9417 229° Southwest 423 487 36,000  Level Houston Center
Fri 07:29:49 PM 30.9597 -88.0456 229° Southwest 425 489 36,000  Level Houston Center
Fri 07:30:51 PM 30.8647 -88.1700 228° Southwest 429 494 36,000  Level Houston Center
Fri 07:31:53 PM 30.7875 -88.2736 229° Southwest 426 490 36,000  Level Houston Center
Fri 07:32:54 PM 30.7156 -88.3811 232° Southwest 423 487 36,000  Level Houston Center
Fri 07:33:56 PM 30.6767 -88.4972 249° West 418 481 36,000  Level Houston Center
Fri 07:34:58 PM 30.6253 -88.6453 248° West 411 473 36,000  Level Houston Center
Fri 07:36:00 PM 30.5831 -88.7689 248° West 411 473 36,000  Level Houston Center
Fri 07:37:02 PM 30.5411 -88.8917 248° West 409 471 36,000  Level Houston Center
Fri 07:38:04 PM 30.4956 -89.0222 248° West 409 471 36,000  Level Houston Center
Fri 07:39:06 PM 30.4536 -89.1444 248° West 409 471 36,000  Level Houston Center
Fri 07:40:08 PM 30.4114 -89.2661 248° West 408 470 36,000  Level Houston Center
Fri 07:41:10 PM 30.3697 -89.3886 249° West 408 470 36,000  Level Houston Center
Fri 07:42:11 PM 30.3267 -89.5106 248° West 409 471 36,000  Level Houston Center
Fri 07:43:13 PM 30.2825 -89.6325 247° West 407 468 36,000  Level Houston Center
Fri 07:44:15 PM 30.2358 -89.7589 247° West 414 476 36,000  Level Houston Center
Fri 07:45:17 PM 30.1928 -89.8853 249° West 415 478 36,000  Level Houston Center
Fri 07:46:19 PM 30.1508 -90.0078 248° West 410 472 36,000  Level Houston Center
Fri 07:47:21 PM 30.0986 -90.1544 248° West 410 472 36,000  Level Houston Center
Fri 07:48:22 PM 30.0556 -90.2756 248° West 410 472 36,000  Level Houston Center
Fri 07:49:24 PM 30.0128 -90.3969 248° West 408 470 36,000  Level Houston Center
Fri 07:50:26 PM 29.9689 -90.5194 248° West 411 473 36,000  Level Houston Center
Fri 07:51:28 PM 29.9256 -90.6397 247° West 410 472 36,000  Level Houston Center
Fri 07:52:30 PM 29.8817 -90.7603 247° West 410 472 36,000  Level Houston Center
Fri 07:53:31 PM 29.8364 -90.8817 247° West 410 472 36,000  Level Houston Center
Fri 07:54:33 PM 29.7850 -91.0272 248° West 410 472 36,000  Level Houston Center
Fri 07:55:35 PM 29.7408 -91.1497 247° West 413 475 36,000  Level Houston Center
Fri 07:56:37 PM 29.6964 -91.2692 247° West 411 473 36,000  Level Houston Center
Fri 07:57:39 PM 29.6525 -91.3914 248° West 411 473 36,000  Level Houston Center
Fri 07:58:40 PM 29.6131 -91.5136 250° West 410 472 36,000  Level Houston Center
Fri 07:59:42 PM 29.5933 -91.6406 260° West 405 466 36,000  Level Houston Center
Fri 08:00:44 PM 29.5706 -91.7681 258° West 405 466 36,000  Level Houston Center
Fri 08:01:46 PM 29.5461 -91.9222 260° West 408 470 36,000  Level Houston Center
Fri 08:02:48 PM 29.5253 -92.0500 259° West 408 470 36,000  Level Houston Center
Fri 08:03:49 PM 29.5036 -92.1761 259° West 406 467 36,000  Level Houston Center
Fri 08:04:51 PM 29.4828 -92.3050 260° West 408 470 36,000  Level Houston Center
Fri 08:05:53 PM 29.4606 -92.4333 259° West 409 471 36,000  Level Houston Center
Fri 08:06:55 PM 29.4614 -92.5633 270° West 410 472 36,000 -339 Level Houston Center
Fri 08:07:57 PM 29.4669 -92.6911 273° West 403 464 35,300 -927 Descending Houston Center
Fri 08:08:58 PM 29.4739 -92.8450 273° West 402 463 34,100 -1,122 Descending Houston Center
Fri 08:10:00 PM 29.4792 -92.9767 273° West 410 472 33,000 -968 Descending Houston Center
Fri 08:11:02 PM 29.4847 -93.1047 273° West 405 466 32,100 -968 Descending Houston Center
Fri 08:12:04 PM 29.4908 -93.2369 273° West 411 473 31,000 -1,500 Descending Houston Center
Fri 08:13:06 PM 29.4964 -93.3725 273° West 421 484 29,000 -2,146 Descending Houston Center
Fri 08:14:07 PM 29.5022 -93.5111 273° West 430 495 26,600 -2,244 Descending Houston Center
Fri 08:15:09 PM 29.5072 -93.6453 272° West 423 487 24,400 -2,419 Descending Houston Center
Fri 08:16:11 PM 29.5133 -93.8044 273° West 415 478 21,600 -2,419 Descending Houston Center
Fri 08:17:13 PM 29.5183 -93.9331 273° West 405 466 19,400 -1,984 Descending Houston Center
Fri 08:18:15 PM 29.5231 -94.0583 273° West 396 456 17,500 -1,978 Descending Houston Center
Fri 08:18:44 PM 29.5247 -94.1253 272° West 383 441 16,400 -1,935 Descending Houston Center
Fri 08:19:17 PM 29.5264 -94.1672 273° West 384 442 15,500 -2,464 Descending Houston Center
Fri 08:19:40 PM 29.5278 -94.2378 271° West 376 433 14,100 -2,226 Descending Houston Center
Fri 08:20:19 PM 29.5311 -94.3064 273° West 366 421 13,200 -885 Descending Houston Center
Fri 08:20:41 PM 29.5367 -94.3472 279° West 331 381 13,200 -194 Level Houston Center
Fri 08:21:21 PM 29.5592 -94.4053 294° West 336 387 13,000 -590 Descending Houston Center
Fri 08:21:42 PM 29.5756 -94.4431 297° West 344 396 12,600 -984 Descending Houston Center
Fri 08:22:22 PM 29.6003 -94.5039 295° West 342 394 12,000 -985 Descending Houston Center
Fri 08:22:49 PM 29.6222 -94.5550 296° West 333 383 11,500 -968 Descending Houston Center
Fri 08:23:24 PM 29.6425 -94.5994 298° West 338 389 11,000 -1,091 Descending Houston Center
Fri 08:23:44 PM 29.6603 -94.6439 295° West 331 381 10,500 -968 Descending Houston Center
Fri 08:24:26 PM 29.6828 -94.6928 298° West 332 382 10,000 -288 Descending Houston Center
Fri 08:25:28 PM 29.7217 -94.7842 296° West 324 373 10,000  Level Houston Center
Fri 08:25:52 PM 29.7444 -94.8403 295° West 325 374 10,000  Level Houston Center
Fri 08:26:30 PM 29.7683 -94.8953 297° West 324 373 10,000  Level Houston Center
Fri 08:26:54 PM 29.7828 -94.9342 293° West 321 369 10,000 -387 Level Houston Center
Fri 08:27:32 PM 29.8047 -94.9806 299° West 306 352 9,600 -780 Descending Houston Center
Fri 08:28:34 PM 29.8375 -95.0600 295° West 280 322 8,700 -1,000 Descending Houston Center
Fri 08:28:56 PM 29.8528 -95.0964 296° West 284 327 8,200 -968 Descending Houston Center
Fri 08:29:36 PM 29.8719 -95.1411 296° West 284 327 7,700 -982 Descending Houston Center
Fri 08:29:51 PM 29.8828 -95.1722 292° West 286 329 7,300 -968 Descending Houston Center
Fri 08:30:38 PM 29.9008 -95.2250 292° West 286 329 6,700 -985 Descending Houston Center
Fri 08:30:58 PM 29.8983 -95.2717 266° West 273 314 6,200 -689 Descending Houston Center
Fri 08:31:39 PM 29.9006 -95.3281 273° West 271 312 6,000 -117 Descending Houston Center
Fri 08:32:41 PM 29.9003 -95.4119 270° West 265 305 6,000  Level Houston Center
Fri 08:33:43 PM 29.9008 -95.4983 270° West 269 310 6,000 -242 Level Houston Center
Fri 08:34:45 PM 29.9008 -95.5828 270° West 266 306 5,500 -835 Descending Houston Center
Fri 08:35:02 PM 29.9008 -95.6208 270° West 269 310 4,900 -1,355 Descending Houston Center
Fri 08:35:47 PM 29.9308 -95.6500 320° Northwest 258 297 4,100 -885 Descending Houston Center
Fri 08:36:03 PM 29.9619 -95.6475 North 238 274 4,000 -194 Descending Houston Center
Fri 08:36:49 PM 29.9853 -95.6231 42° Northeast 226 260 3,900 -513 Descending Houston Center
Fri 08:38:00 PM 29.9922 -95.5400 84° East 179 206 3,000 -726 Descending Houston Center
Fri 08:38:53 PM 29.9939 -95.4933 88° East 187 215 2,400 -679 Descending Houston Center

Login

Don't have an account? Register now (free) for customized features, flight alerts, and more!